sensor_id;sensor_type;location;lat;lon;timestamp;temperature;humidity
37289;DHT22;23174;49.462;11.000;2022-08-04T00:01:07;24.70;95.00
37289;DHT22;23174;49.462;11.000;2022-08-04T00:03:23;24.70;95.20
37289;DHT22;23174;49.462;11.000;2022-08-04T00:10:01;24.70;95.40
37289;DHT22;23174;49.462;11.000;2022-08-04T00:12:02;24.60;95.70
37289;DHT22;23174;49.462;11.000;2022-08-04T00:14:14;24.60;95.80
37289;DHT22;23174;49.462;11.000;2022-08-04T00:16:16;24.70;95.80
37289;DHT22;23174;49.462;11.000;2022-08-04T00:18:22;24.70;95.70
37289;DHT22;23174;49.462;11.000;2022-08-04T00:20:28;24.50;95.70
37289;DHT22;23174;49.462;11.000;2022-08-04T00:22:30;24.30;95.90
37289;DHT22;23174;49.462;11.000;2022-08-04T00:24:34;24.20;96.10
37289;DHT22;23174;49.462;11.000;2022-08-04T00:26:35;24.20;96.40
37289;DHT22;23174;49.462;11.000;2022-08-04T00:28:38;24.20;96.30
37289;DHT22;23174;49.462;11.000;2022-08-04T00:30:40;24.10;96.50
37289;DHT22;23174;49.462;11.000;2022-08-04T00:32:42;24.00;96.70
37289;DHT22;23174;49.462;11.000;2022-08-04T00:34:43;24.00;96.90
37289;DHT22;23174;49.462;11.000;2022-08-04T00:36:44;24.00;96.80
37289;DHT22;23174;49.462;11.000;2022-08-04T00:38:45;24.00;96.90
37289;DHT22;23174;49.462;11.000;2022-08-04T00:51:08;24.00;97.30
37289;DHT22;23174;49.462;11.000;2022-08-04T00:53:17;23.90;97.50
37289;DHT22;23174;49.462;11.000;2022-08-04T00:56:03;23.80;97.50
37289;DHT22;23174;49.462;11.000;2022-08-04T01:03:13;24.00;97.60
37289;DHT22;23174;49.462;11.000;2022-08-04T01:05:30;24.20;97.50
37289;DHT22;23174;49.462;11.000;2022-08-04T01:10:16;24.10;97.80
37289;DHT22;23174;49.462;11.000;2022-08-04T01:15:06;24.00;97.30
37289;DHT22;23174;49.462;11.000;2022-08-04T01:17:20;23.90;97.50
37289;DHT22;23174;49.462;11.000;2022-08-04T01:19:43;23.80;97.30
37289;DHT22;23174;49.462;11.000;2022-08-04T01:22:16;24.00;97.60
37289;DHT22;23174;49.462;11.000;2022-08-04T01:27:01;24.00;97.80
37289;DHT22;23174;49.462;11.000;2022-08-04T01:29:10;24.00;97.60
37289;DHT22;23174;49.462;11.000;2022-08-04T01:31:21;23.90;97.60
37289;DHT22;23174;49.462;11.000;2022-08-04T01:33:28;23.80;97.60
37289;DHT22;23174;49.462;11.000;2022-08-04T01:35:37;23.80;97.70
37289;DHT22;23174;49.462;11.000;2022-08-04T01:37:48;23.90;97.90
37289;DHT22;23174;49.462;11.000;2022-08-04T01:40:04;23.80;97.40
37289;DHT22;23174;49.462;11.000;2022-08-04T01:42:06;23.70;97.50
37289;DHT22;23174;49.462;11.000;2022-08-04T01:44:08;23.60;97.60
37289;DHT22;23174;49.462;11.000;2022-08-04T01:46:13;23.40;97.80
37289;DHT22;23174;49.462;11.000;2022-08-04T01:48:14;23.40;97.80
37289;DHT22;23174;49.462;11.000;2022-08-04T01:50:16;23.40;98.20
37289;DHT22;23174;49.462;11.000;2022-08-04T01:52:17;23.30;98.10
37289;DHT22;23174;49.462;11.000;2022-08-04T01:54:18;23.30;98.10
37289;DHT22;23174;49.462;11.000;2022-08-04T01:56:20;23.40;98.20
37289;DHT22;23174;49.462;11.000;2022-08-04T01:58:23;23.50;97.90
37289;DHT22;23174;49.462;11.000;2022-08-04T02:00:25;23.40;98.10
37289;DHT22;23174;49.462;11.000;2022-08-04T02:02:26;23.40;98.20
37289;DHT22;23174;49.462;11.000;2022-08-04T02:04:27;23.40;98.50
37289;DHT22;23174;49.462;11.000;2022-08-04T02:06:31;23.40;98.70
37289;DHT22;23174;49.462;11.000;2022-08-04T02:08:44;23.40;98.40
37289;DHT22;23174;49.462;11.000;2022-08-04T02:11:16;23.40;98.80
37289;DHT22;23174;49.462;11.000;2022-08-04T02:13:43;23.60;98.40
37289;DHT22;23174;49.462;11.000;2022-08-04T02:16:10;23.50;98.60
37289;DHT22;23174;49.462;11.000;2022-08-04T02:20:45;23.00;99.50
37289;DHT22;23174;49.462;11.000;2022-08-04T02:23:08;23.00;99.60
37289;DHT22;23174;49.462;11.000;2022-08-04T02:25:10;23.00;99.40
37289;DHT22;23174;49.462;11.000;2022-08-04T02:27:13;23.00;99.50
37289;DHT22;23174;49.462;11.000;2022-08-04T02:29:30;22.90;99.80
37289;DHT22;23174;49.462;11.000;2022-08-04T02:31:38;22.80;99.90
37289;DHT22;23174;49.462;11.000;2022-08-04T02:33:45;22.80;99.90
37289;DHT22;23174;49.462;11.000;2022-08-04T02:35:51;22.70;99.90
37289;DHT22;23174;49.462;11.000;2022-08-04T02:40:32;22.90;99.90
37289;DHT22;23174;49.462;11.000;2022-08-04T02:42:34;23.10;99.90
37289;DHT22;23174;49.462;11.000;2022-08-04T02:44:35;23.10;99.90
37289;DHT22;23174;49.462;11.000;2022-08-04T02:46:38;23.10;99.90
37289;DHT22;23174;49.462;11.000;2022-08-04T02:48:39;23.00;99.90
37289;DHT22;23174;49.462;11.000;2022-08-04T02:50:43;23.10;99.90
37289;DHT22;23174;49.462;11.000;2022-08-04T02:52:44;23.00;99.90
37289;DHT22;23174;49.462;11.000;2022-08-04T02:54:50;22.90;99.90
37289;DHT22;23174;49.462;11.000;2022-08-04T02:56:52;22.80;99.90
37289;DHT22;23174;49.462;11.000;2022-08-04T02:59:04;22.60;99.90
37289;DHT22;23174;49.462;11.000;2022-08-04T03:01:05;22.60;99.90
37289;DHT22;23174;49.462;11.000;2022-08-04T03:10:39;22.30;99.90
37289;DHT22;23174;49.462;11.000;2022-08-04T03:15:34;22.80;99.90
37289;DHT22;23174;49.462;11.000;2022-08-04T03:22:15;22.70;99.90
37289;DHT22;23174;49.462;11.000;2022-08-04T03:27:11;22.60;99.90
37289;DHT22;23174;49.462;11.000;2022-08-04T03:32:06;22.20;99.90
37289;DHT22;23174;49.462;11.000;2022-08-04T03:41:12;22.40;99.90
37289;DHT22;23174;49.462;11.000;2022-08-04T03:48:03;22.30;99.90
37289;DHT22;23174;49.462;11.000;2022-08-04T03:52:39;22.10;99.90
37289;DHT22;23174;49.462;11.000;2022-08-04T03:58:04;21.80;99.90
37289;DHT22;23174;49.462;11.000;2022-08-04T04:00:14;21.80;99.90
37289;DHT22;23174;49.462;11.000;2022-08-04T04:02:33;21.80;99.90
37289;DHT22;23174;49.462;11.000;2022-08-04T04:10:16;21.20;99.90
37289;DHT22;23174;49.462;11.000;2022-08-04T04:34:20;21.60;99.90
37289;DHT22;23174;49.462;11.000;2022-08-04T04:36:45;21.50;99.90
37289;DHT22;23174;49.462;11.000;2022-08-04T04:39:19;21.50;99.90
37289;DHT22;23174;49.462;11.000;2022-08-04T04:44:11;21.50;99.90
37289;DHT22;23174;49.462;11.000;2022-08-04T04:53:27;22.00;99.90
37289;DHT22;23174;49.462;11.000;2022-08-04T04:55:42;21.90;99.90
37289;DHT22;23174;49.462;11.000;2022-08-04T04:57:44;21.90;99.90
37289;DHT22;23174;49.462;11.000;2022-08-04T04:59:49;21.90;99.90
37289;DHT22;23174;49.462;11.000;2022-08-04T05:02:40;21.90;99.90
37289;DHT22;23174;49.462;11.000;2022-08-04T05:14:45;22.20;99.90
37289;DHT22;23174;49.462;11.000;2022-08-04T05:16:52;22.30;99.90
37289;DHT22;23174;49.462;11.000;2022-08-04T05:21:09;22.40;99.90
37289;DHT22;23174;49.462;11.000;2022-08-04T05:23:17;22.40;99.90
37289;DHT22;23174;49.462;11.000;2022-08-04T05:27:50;22.50;99.90
37289;DHT22;23174;49.462;11.000;2022-08-04T05:29:58;22.50;99.90
37289;DHT22;23174;49.462;11.000;2022-08-04T05:32:12;22.60;99.90
37289;DHT22;23174;49.462;11.000;2022-08-04T05:34:23;22.60;99.90
37289;DHT22;23174;49.462;11.000;2022-08-04T05:36:47;22.60;99.90
37289;DHT22;23174;49.462;11.000;2022-08-04T05:38:56;22.70;99.90
37289;DHT22;23174;49.462;11.000;2022-08-04T05:40:59;22.70;99.90
37289;DHT22;23174;49.462;11.000;2022-08-04T05:43:00;22.70;99.90
37289;DHT22;23174;49.462;11.000;2022-08-04T05:45:02;22.80;99.90
37289;DHT22;23174;49.462;11.000;2022-08-04T05:47:04;22.90;99.90
37289;DHT22;23174;49.462;11.000;2022-08-04T05:49:08;23.00;99.90
37289;DHT22;23174;49.462;11.000;2022-08-04T05:51:09;23.00;99.90
37289;DHT22;23174;49.462;11.000;2022-08-04T05:53:12;23.10;99.90
37289;DHT22;23174;49.462;11.000;2022-08-04T05:55:14;23.10;99.90
37289;DHT22;23174;49.462;11.000;2022-08-04T05:57:16;23.20;99.90
37289;DHT22;23174;49.462;11.000;2022-08-04T05:59:18;23.30;99.90
37289;DHT22;23174;49.462;11.000;2022-08-04T06:01:20;23.40;99.90
37289;DHT22;23174;49.462;11.000;2022-08-04T06:03:23;23.50;99.90
37289;DHT22;23174;49.462;11.000;2022-08-04T06:05:25;23.60;99.90
37289;DHT22;23174;49.462;11.000;2022-08-04T06:07:26;23.70;99.90
37289;DHT22;23174;49.462;11.000;2022-08-04T06:09:27;23.70;99.90
37289;DHT22;23174;49.462;11.000;2022-08-04T06:11:29;23.80;99.90
37289;DHT22;23174;49.462;11.000;2022-08-04T06:13:36;24.00;99.90
37289;DHT22;23174;49.462;11.000;2022-08-04T06:15:40;24.00;99.90
37289;DHT22;23174;49.462;11.000;2022-08-04T06:17:49;24.10;99.90
37289;DHT22;23174;49.462;11.000;2022-08-04T06:19:52;24.10;99.90
37289;DHT22;23174;49.462;11.000;2022-08-04T06:21:55;24.20;99.90
37289;DHT22;23174;49.462;11.000;2022-08-04T06:23:59;24.30;99.90
37289;DHT22;23174;49.462;11.000;2022-08-04T06:26:00;24.40;99.90
37289;DHT22;23174;49.462;11.000;2022-08-04T06:28:04;24.50;99.90
37289;DHT22;23174;49.462;11.000;2022-08-04T06:30:06;24.50;99.90
37289;DHT22;23174;49.462;11.000;2022-08-04T06:32:12;24.60;99.90
37289;DHT22;23174;49.462;11.000;2022-08-04T06:34:36;24.70;99.80
37289;DHT22;23174;49.462;11.000;2022-08-04T06:36:38;24.90;99.80
37289;DHT22;23174;49.462;11.000;2022-08-04T06:38:40;24.70;99.70
37289;DHT22;23174;49.462;11.000;2022-08-04T06:40:42;24.80;99.50
37289;DHT22;23174;49.462;11.000;2022-08-04T06:42:43;24.80;99.40
37289;DHT22;23174;49.462;11.000;2022-08-04T06:44:48;24.90;99.30
37289;DHT22;23174;49.462;11.000;2022-08-04T06:46:50;24.90;99.00
37289;DHT22;23174;49.462;11.000;2022-08-04T06:48:53;25.00;99.10
37289;DHT22;23174;49.462;11.000;2022-08-04T06:50:54;25.10;98.80
37289;DHT22;23174;49.462;11.000;2022-08-04T06:52:54;25.10;98.50
37289;DHT22;23174;49.462;11.000;2022-08-04T06:54:55;25.20;98.40
37289;DHT22;23174;49.462;11.000;2022-08-04T06:56:57;25.20;98.60
37289;DHT22;23174;49.462;11.000;2022-08-04T06:58:59;25.30;98.50
37289;DHT22;23174;49.462;11.000;2022-08-04T07:01:01;25.40;98.20
37289;DHT22;23174;49.462;11.000;2022-08-04T07:03:02;25.50;98.00
37289;DHT22;23174;49.462;11.000;2022-08-04T07:05:06;25.50;97.90
37289;DHT22;23174;49.462;11.000;2022-08-04T07:07:06;25.60;97.90
37289;DHT22;23174;49.462;11.000;2022-08-04T07:09:07;25.60;97.60
37289;DHT22;23174;49.462;11.000;2022-08-04T07:11:08;25.70;97.50
37289;DHT22;23174;49.462;11.000;2022-08-04T07:13:10;25.80;97.20
37289;DHT22;23174;49.462;11.000;2022-08-04T07:15:11;25.90;97.30
37289;DHT22;23174;49.462;11.000;2022-08-04T07:17:14;25.90;97.20
37289;DHT22;23174;49.462;11.000;2022-08-04T07:19:16;26.00;97.20
37289;DHT22;23174;49.462;11.000;2022-08-04T07:21:23;26.10;97.30
37289;DHT22;23174;49.462;11.000;2022-08-04T07:23:24;26.20;97.00
37289;DHT22;23174;49.462;11.000;2022-08-04T07:25:25;26.20;96.80
37289;DHT22;23174;49.462;11.000;2022-08-04T07:27:26;26.30;96.70
37289;DHT22;23174;49.462;11.000;2022-08-04T07:29:27;26.30;96.60
37289;DHT22;23174;49.462;11.000;2022-08-04T07:31:29;26.40;96.30
37289;DHT22;23174;49.462;11.000;2022-08-04T07:33:31;26.50;96.30
37289;DHT22;23174;49.462;11.000;2022-08-04T07:35:32;26.50;96.20
37289;DHT22;23174;49.462;11.000;2022-08-04T07:37:33;26.50;96.20
37289;DHT22;23174;49.462;11.000;2022-08-04T07:39:34;26.60;96.20
37289;DHT22;23174;49.462;11.000;2022-08-04T07:41:36;26.70;96.20
37289;DHT22;23174;49.462;11.000;2022-08-04T07:43:37;26.80;95.80
37289;DHT22;23174;49.462;11.000;2022-08-04T07:45:38;26.80;95.50
37289;DHT22;23174;49.462;11.000;2022-08-04T07:47:42;26.90;95.80
37289;DHT22;23174;49.462;11.000;2022-08-04T07:49:43;26.90;95.30
37289;DHT22;23174;49.462;11.000;2022-08-04T07:51:44;27.00;95.50
37289;DHT22;23174;49.462;11.000;2022-08-04T07:53:45;27.10;95.30
37289;DHT22;23174;49.462;11.000;2022-08-04T07:55:46;27.10;95.30
37289;DHT22;23174;49.462;11.000;2022-08-04T07:57:47;27.30;95.40
37289;DHT22;23174;49.462;11.000;2022-08-04T07:59:48;27.30;94.70
37289;DHT22;23174;49.462;11.000;2022-08-04T08:01:49;27.30;94.90
37289;DHT22;23174;49.462;11.000;2022-08-04T08:03:53;27.40;94.60
37289;DHT22;23174;49.462;11.000;2022-08-04T08:05:54;27.40;94.30
37289;DHT22;23174;49.462;11.000;2022-08-04T08:07:55;27.40;94.40
37289;DHT22;23174;49.462;11.000;2022-08-04T08:09:57;27.40;94.30
37289;DHT22;23174;49.462;11.000;2022-08-04T08:11:57;27.50;94.20
37289;DHT22;23174;49.462;11.000;2022-08-04T08:13:59;27.70;93.80
37289;DHT22;23174;49.462;11.000;2022-08-04T08:16:01;27.70;93.90
37289;DHT22;23174;49.462;11.000;2022-08-04T08:18:02;27.70;93.60
37289;DHT22;23174;49.462;11.000;2022-08-04T08:20:05;27.70;93.40
37289;DHT22;23174;49.462;11.000;2022-08-04T08:22:06;27.70;93.30
37289;DHT22;23174;49.462;11.000;2022-08-04T08:24:07;27.80;93.30
37289;DHT22;23174;49.462;11.000;2022-08-04T08:26:10;27.80;93.10
37289;DHT22;23174;49.462;11.000;2022-08-04T08:28:11;27.90;93.20
37289;DHT22;23174;49.462;11.000;2022-08-04T08:30:11;28.00;92.90
37289;DHT22;23174;49.462;11.000;2022-08-04T08:32:12;28.20;92.60
37289;DHT22;23174;49.462;11.000;2022-08-04T08:34:13;28.10;92.50
37289;DHT22;23174;49.462;11.000;2022-08-04T08:41:28;28.30;92.10
37289;DHT22;23174;49.462;11.000;2022-08-04T08:48:38;28.30;91.70
37289;DHT22;23174;49.462;11.000;2022-08-04T09:01:11;28.60;91.00
37289;DHT22;23174;49.462;11.000;2022-08-04T09:05:50;28.80;90.90
37289;DHT22;23174;49.462;11.000;2022-08-04T09:08:00;29.10;90.50
37289;DHT22;23174;49.462;11.000;2022-08-04T09:10:41;29.00;90.70
37289;DHT22;23174;49.462;11.000;2022-08-04T09:12:52;29.00;90.40
37289;DHT22;23174;49.462;11.000;2022-08-04T09:15:14;29.00;90.10
37289;DHT22;23174;49.462;11.000;2022-08-04T09:17:36;29.00;90.20
37289;DHT22;23174;49.462;11.000;2022-08-04T09:19:51;29.00;90.30
37289;DHT22;23174;49.462;11.000;2022-08-04T09:24:17;29.10;90.00
37289;DHT22;23174;49.462;11.000;2022-08-04T09:28:55;29.20;89.90
37289;DHT22;23174;49.462;11.000;2022-08-04T09:31:10;29.30;89.90
37289;DHT22;23174;49.462;11.000;2022-08-04T09:36:06;29.50;89.50
37289;DHT22;23174;49.462;11.000;2022-08-04T09:41:19;29.50;88.40
37289;DHT22;23174;49.462;11.000;2022-08-04T09:46:01;29.50;89.30
37289;DHT22;23174;49.462;11.000;2022-08-04T09:48:16;29.60;87.80
37289;DHT22;23174;49.462;11.000;2022-08-04T09:50:37;29.60;87.70
37289;DHT22;23174;49.462;11.000;2022-08-04T09:55:53;29.60;88.00
37289;DHT22;23174;49.462;11.000;2022-08-04T10:00:09;29.50;87.60
37289;DHT22;23174;49.462;11.000;2022-08-04T10:02:12;29.50;87.40
37289;DHT22;23174;49.462;11.000;2022-08-04T10:04:15;29.50;88.00
37289;DHT22;23174;49.462;11.000;2022-08-04T10:11:21;29.80;87.50
37289;DHT22;23174;49.462;11.000;2022-08-04T10:16:23;29.70;87.10
37289;DHT22;23174;49.462;11.000;2022-08-04T10:18:43;29.80;88.20
37289;DHT22;23174;49.462;11.000;2022-08-04T10:21:00;29.80;87.10
37289;DHT22;23174;49.462;11.000;2022-08-04T10:23:30;29.80;86.60
37289;DHT22;23174;49.462;11.000;2022-08-04T10:28:10;29.80;86.70
37289;DHT22;23174;49.462;11.000;2022-08-04T10:30:11;29.90;87.30
37289;DHT22;23174;49.462;11.000;2022-08-04T10:32:32;29.80;85.90
37289;DHT22;23174;49.462;11.000;2022-08-04T10:39:17;29.90;84.90
37289;DHT22;23174;49.462;11.000;2022-08-04T10:41:32;30.00;85.40
37289;DHT22;23174;49.462;11.000;2022-08-04T10:45:43;30.30;83.70
37289;DHT22;23174;49.462;11.000;2022-08-04T10:47:55;30.10;83.20
37289;DHT22;23174;49.462;11.000;2022-08-04T10:50:00;30.10;83.40
37289;DHT22;23174;49.462;11.000;2022-08-04T10:52:17;30.30;82.40
37289;DHT22;23174;49.462;11.000;2022-08-04T10:57:21;30.30;82.00
37289;DHT22;23174;49.462;11.000;2022-08-04T10:59:32;30.20;81.60
37289;DHT22;23174;49.462;11.000;2022-08-04T11:01:39;30.10;82.10
37289;DHT22;23174;49.462;11.000;2022-08-04T11:04:00;30.00;81.60
37289;DHT22;23174;49.462;11.000;2022-08-04T11:06:03;30.10;82.20
37289;DHT22;23174;49.462;11.000;2022-08-04T11:10:34;30.20;82.20
37289;DHT22;23174;49.462;11.000;2022-08-04T11:12:37;30.20;82.00
37289;DHT22;23174;49.462;11.000;2022-08-04T11:14:46;30.10;81.20
37289;DHT22;23174;49.462;11.000;2022-08-04T11:16:56;30.10;81.90
37289;DHT22;23174;49.462;11.000;2022-08-04T11:21:33;30.30;82.00
37289;DHT22;23174;49.462;11.000;2022-08-04T11:23:36;30.40;81.40
37289;DHT22;23174;49.462;11.000;2022-08-04T11:30:00;30.50;81.10
37289;DHT22;23174;49.462;11.000;2022-08-04T11:32:07;30.50;80.70
37289;DHT22;23174;49.462;11.000;2022-08-04T11:38:46;30.50;80.60
37289;DHT22;23174;49.462;11.000;2022-08-04T11:40:52;30.50;80.70
37289;DHT22;23174;49.462;11.000;2022-08-04T11:43:00;30.60;81.60
37289;DHT22;23174;49.462;11.000;2022-08-04T11:45:04;30.90;80.00
37289;DHT22;23174;49.462;11.000;2022-08-04T11:49:40;30.80;79.10
37289;DHT22;23174;49.462;11.000;2022-08-04T11:51:44;30.50;79.30
37289;DHT22;23174;49.462;11.000;2022-08-04T11:53:45;30.50;79.90
37289;DHT22;23174;49.462;11.000;2022-08-04T11:55:51;30.60;79.40
37289;DHT22;23174;49.462;11.000;2022-08-04T11:57:53;30.80;79.30
37289;DHT22;23174;49.462;11.000;2022-08-04T11:59:56;30.80;79.60
37289;DHT22;23174;49.462;11.000;2022-08-04T12:02:24;30.80;79.10
37289;DHT22;23174;49.462;11.000;2022-08-04T12:04:54;30.80;78.10
37289;DHT22;23174;49.462;11.000;2022-08-04T12:07:04;30.90;78.70
37289;DHT22;23174;49.462;11.000;2022-08-04T12:11:23;30.80;78.70
37289;DHT22;23174;49.462;11.000;2022-08-04T12:13:35;30.80;78.40
37289;DHT22;23174;49.462;11.000;2022-08-04T12:15:57;30.90;79.30
37289;DHT22;23174;49.462;11.000;2022-08-04T12:18:06;30.90;78.40
37289;DHT22;23174;49.462;11.000;2022-08-04T12:20:09;30.90;77.10
37289;DHT22;23174;49.462;11.000;2022-08-04T12:22:18;30.90;77.70
37289;DHT22;23174;49.462;11.000;2022-08-04T12:24:29;30.80;78.20
37289;DHT22;23174;49.462;11.000;2022-08-04T12:26:39;30.60;78.00
37289;DHT22;23174;49.462;11.000;2022-08-04T12:28:44;30.50;77.40
37289;DHT22;23174;49.462;11.000;2022-08-04T12:30:50;30.80;78.00
37289;DHT22;23174;49.462;11.000;2022-08-04T12:33:00;31.00;77.00
37289;DHT22;23174;49.462;11.000;2022-08-04T12:39:52;31.10;77.60
37289;DHT22;23174;49.462;11.000;2022-08-04T12:44:09;30.80;77.90
37289;DHT22;23174;49.462;11.000;2022-08-04T12:46:21;30.80;78.20
37289;DHT22;23174;49.462;11.000;2022-08-04T12:48:23;31.00;78.30
37289;DHT22;23174;49.462;11.000;2022-08-04T12:50:26;31.00;77.90
37289;DHT22;23174;49.462;11.000;2022-08-04T12:52:30;31.00;77.10
37289;DHT22;23174;49.462;11.000;2022-08-04T12:54:33;30.80;76.80
37289;DHT22;23174;49.462;11.000;2022-08-04T12:56:36;30.70;77.10
37289;DHT22;23174;49.462;11.000;2022-08-04T12:58:41;30.60;77.30
37289;DHT22;23174;49.462;11.000;2022-08-04T13:00:44;30.70;78.20
37289;DHT22;23174;49.462;11.000;2022-08-04T13:02:48;30.90;77.50
37289;DHT22;23174;49.462;11.000;2022-08-04T13:04:50;31.10;76.90
37289;DHT22;23174;49.462;11.000;2022-08-04T13:06:56;31.20;76.30
37289;DHT22;23174;49.462;11.000;2022-08-04T13:09:09;31.30;76.50
37289;DHT22;23174;49.462;11.000;2022-08-04T13:11:11;31.50;76.90
37289;DHT22;23174;49.462;11.000;2022-08-04T13:13:20;31.40;75.40
37289;DHT22;23174;49.462;11.000;2022-08-04T13:15:23;31.10;75.70
37289;DHT22;23174;49.462;11.000;2022-08-04T13:17:24;31.00;76.00
37289;DHT22;23174;49.462;11.000;2022-08-04T13:19:25;31.00;75.50
37289;DHT22;23174;49.462;11.000;2022-08-04T13:21:28;30.90;77.40
37289;DHT22;23174;49.462;11.000;2022-08-04T13:23:29;30.90;77.60
37289;DHT22;23174;49.462;11.000;2022-08-04T13:25:31;30.90;76.00
37289;DHT22;23174;49.462;11.000;2022-08-04T13:27:32;30.90;76.90
37289;DHT22;23174;49.462;11.000;2022-08-04T13:29:41;30.90;76.40
37289;DHT22;23174;49.462;11.000;2022-08-04T13:31:43;30.80;76.90
37289;DHT22;23174;49.462;11.000;2022-08-04T13:33:49;30.90;77.20
37289;DHT22;23174;49.462;11.000;2022-08-04T13:35:50;31.20;76.10
37289;DHT22;23174;49.462;11.000;2022-08-04T13:37:51;31.30;76.20
37289;DHT22;23174;49.462;11.000;2022-08-04T13:39:54;31.30;76.00
37289;DHT22;23174;49.462;11.000;2022-08-04T13:42:02;31.30;76.00
37289;DHT22;23174;49.462;11.000;2022-08-04T13:44:05;31.30;76.40
37289;DHT22;23174;49.462;11.000;2022-08-04T13:46:18;31.20;75.50
37289;DHT22;23174;49.462;11.000;2022-08-04T13:48:19;31.10;76.60
37289;DHT22;23174;49.462;11.000;2022-08-04T13:50:24;31.00;77.70
37289;DHT22;23174;49.462;11.000;2022-08-04T13:52:29;31.20;76.80
37289;DHT22;23174;49.462;11.000;2022-08-04T13:54:43;31.30;77.20
37289;DHT22;23174;49.462;11.000;2022-08-04T13:56:50;31.20;76.20
37289;DHT22;23174;49.462;11.000;2022-08-04T13:58:56;31.40;76.10
37289;DHT22;23174;49.462;11.000;2022-08-04T14:01:12;31.60;75.80
37289;DHT22;23174;49.462;11.000;2022-08-04T14:05:28;31.60;75.60
37289;DHT22;23174;49.462;11.000;2022-08-04T14:07:30;31.60;75.00
37289;DHT22;23174;49.462;11.000;2022-08-04T14:09:32;31.60;75.10
37289;DHT22;23174;49.462;11.000;2022-08-04T14:11:36;31.60;75.50
37289;DHT22;23174;49.462;11.000;2022-08-04T14:13:37;31.50;74.60
37289;DHT22;23174;49.462;11.000;2022-08-04T14:15:41;31.70;75.40
37289;DHT22;23174;49.462;11.000;2022-08-04T14:17:42;31.80;75.10
37289;DHT22;23174;49.462;11.000;2022-08-04T14:21:46;32.10;75.00
37289;DHT22;23174;49.462;11.000;2022-08-04T14:23:50;31.90;74.70
37289;DHT22;23174;49.462;11.000;2022-08-04T14:25:51;31.90;74.40
37289;DHT22;23174;49.462;11.000;2022-08-04T14:27:54;31.90;74.80
37289;DHT22;23174;49.462;11.000;2022-08-04T14:29:55;32.00;75.10
37289;DHT22;23174;49.462;11.000;2022-08-04T14:32:00;31.90;74.70
37289;DHT22;23174;49.462;11.000;2022-08-04T14:34:01;31.80;74.10
37289;DHT22;23174;49.462;11.000;2022-08-04T14:36:02;31.80;74.20
37289;DHT22;23174;49.462;11.000;2022-08-04T14:40:04;31.70;74.60
37289;DHT22;23174;49.462;11.000;2022-08-04T14:42:06;31.80;74.00
37289;DHT22;23174;49.462;11.000;2022-08-04T14:44:07;31.90;73.10
37289;DHT22;23174;49.462;11.000;2022-08-04T14:46:08;32.10;72.70
37289;DHT22;23174;49.462;11.000;2022-08-04T14:48:11;31.90;72.30
37289;DHT22;23174;49.462;11.000;2022-08-04T14:50:13;31.80;72.60
37289;DHT22;23174;49.462;11.000;2022-08-04T14:52:22;31.70;72.40
37289;DHT22;23174;49.462;11.000;2022-08-04T14:54:30;31.70;72.70
37289;DHT22;23174;49.462;11.000;2022-08-04T14:56:30;31.70;73.30
37289;DHT22;23174;49.462;11.000;2022-08-04T14:58:33;31.70;72.90
37289;DHT22;23174;49.462;11.000;2022-08-04T15:00:35;31.80;73.20
37289;DHT22;23174;49.462;11.000;2022-08-04T15:02:37;31.90;72.60
37289;DHT22;23174;49.462;11.000;2022-08-04T15:04:41;31.90;72.80
37289;DHT22;23174;49.462;11.000;2022-08-04T15:06:42;31.70;72.90
37289;DHT22;23174;49.462;11.000;2022-08-04T15:08:43;31.70;70.80
37289;DHT22;23174;49.462;11.000;2022-08-04T15:10:43;31.80;71.80
37289;DHT22;23174;49.462;11.000;2022-08-04T15:12:44;31.70;70.50
37289;DHT22;23174;49.462;11.000;2022-08-04T15:14:45;32.00;71.10
37289;DHT22;23174;49.462;11.000;2022-08-04T15:16:46;31.90;70.50
37289;DHT22;23174;49.462;11.000;2022-08-04T15:18:46;31.90;70.90
37289;DHT22;23174;49.462;11.000;2022-08-04T15:20:47;31.80;70.40
37289;DHT22;23174;49.462;11.000;2022-08-04T15:22:48;31.90;70.70
37289;DHT22;23174;49.462;11.000;2022-08-04T15:24:49;32.00;71.60
37289;DHT22;23174;49.462;11.000;2022-08-04T15:26:52;32.30;71.70
37289;DHT22;23174;49.462;11.000;2022-08-04T15:29:00;32.30;70.00
37289;DHT22;23174;49.462;11.000;2022-08-04T15:31:03;32.30;69.40
37289;DHT22;23174;49.462;11.000;2022-08-04T15:33:05;32.30;69.70
37289;DHT22;23174;49.462;11.000;2022-08-04T15:35:11;32.30;69.60
37289;DHT22;23174;49.462;11.000;2022-08-04T15:37:22;32.50;69.60
37289;DHT22;23174;49.462;11.000;2022-08-04T15:39:33;32.40;68.90
37289;DHT22;23174;49.462;11.000;2022-08-04T15:41:59;32.40;69.50
37289;DHT22;23174;49.462;11.000;2022-08-04T15:47:07;32.30;70.80
37289;DHT22;23174;49.462;11.000;2022-08-04T15:49:21;32.40;70.50
37289;DHT22;23174;49.462;11.000;2022-08-04T15:51:25;32.30;69.50
37289;DHT22;23174;49.462;11.000;2022-08-04T15:53:28;32.30;69.80
37289;DHT22;23174;49.462;11.000;2022-08-04T15:57:58;32.40;69.20
37289;DHT22;23174;49.462;11.000;2022-08-04T16:00:06;32.40;70.20
37289;DHT22;23174;49.462;11.000;2022-08-04T16:04:33;32.20;69.00
37289;DHT22;23174;49.462;11.000;2022-08-04T16:10:46;32.40;69.40
37289;DHT22;23174;49.462;11.000;2022-08-04T16:12:58;32.30;69.10
37289;DHT22;23174;49.462;11.000;2022-08-04T16:17:40;32.30;69.80
37289;DHT22;23174;49.462;11.000;2022-08-04T16:19:53;32.30;69.20
37289;DHT22;23174;49.462;11.000;2022-08-04T16:21:58;32.40;68.90
37289;DHT22;23174;49.462;11.000;2022-08-04T16:26:11;32.50;69.10
37289;DHT22;23174;49.462;11.000;2022-08-04T16:30:39;32.70;70.10
37289;DHT22;23174;49.462;11.000;2022-08-04T16:32:45;32.70;69.60
37289;DHT22;23174;49.462;11.000;2022-08-04T16:35:00;32.90;68.90
37289;DHT22;23174;49.462;11.000;2022-08-04T16:37:05;33.00;69.10
37289;DHT22;23174;49.462;11.000;2022-08-04T16:39:06;32.90;68.80
37289;DHT22;23174;49.462;11.000;2022-08-04T16:41:39;32.90;70.60
37289;DHT22;23174;49.462;11.000;2022-08-04T16:43:40;32.90;68.90
37289;DHT22;23174;49.462;11.000;2022-08-04T16:45:43;32.90;69.30
37289;DHT22;23174;49.462;11.000;2022-08-04T16:50:00;32.80;69.20
37289;DHT22;23174;49.462;11.000;2022-08-04T16:52:05;32.80;68.50
37289;DHT22;23174;49.462;11.000;2022-08-04T16:54:06;33.00;68.20
37289;DHT22;23174;49.462;11.000;2022-08-04T16:56:08;33.10;68.20
37289;DHT22;23174;49.462;11.000;2022-08-04T16:58:10;33.40;68.00
37289;DHT22;23174;49.462;11.000;2022-08-04T17:00:10;33.40;69.10
37289;DHT22;23174;49.462;11.000;2022-08-04T17:02:11;33.40;67.80